createdAt,value
2023-01-18T00:01:19.493Z,66.03
2023-01-18T00:03:47.292Z,68.03
2023-01-18T00:06:14.475Z,35.57
2023-01-18T00:08:42.618Z,36.17
2023-01-18T00:11:11.739Z,32.47
2023-01-18T00:13:39.683Z,33.33
2023-01-18T00:16:09.007Z,30.57
2023-01-18T00:18:36.319Z,30.63
2023-01-18T00:21:05.006Z,35.47
2023-01-18T00:23:32.682Z,34.50
2023-01-18T00:26:05.143Z,32.40
2023-01-18T00:28:32.917Z,35.23
2023-01-18T00:30:59.845Z,35.13
2023-01-18T00:33:27.129Z,37.07
2023-01-18T00:35:58.654Z,34.03
2023-01-18T00:38:26.667Z,32.80
2023-01-18T00:40:53.976Z,33.50
2023-01-18T00:43:40.047Z,42.87
2023-01-18T00:46:22.035Z,39.43
2023-01-18T00:48:49.625Z,42.90
2023-01-18T00:51:19.240Z,36.67
2023-01-18T00:53:46.992Z,50.43
2023-01-18T00:56:19.250Z,45.70
2023-01-18T00:58:46.798Z,46.87
2023-01-18T01:01:14.241Z,40.20
2023-01-18T01:04:00.116Z,38.47
2023-01-18T01:06:46.658Z,36.63
2023-01-18T01:09:23.988Z,38.20
2023-01-18T01:12:10.317Z,39.20
2023-01-18T01:14:59.731Z,37.13
2023-01-18T01:17:46.905Z,32.50
2023-01-18T01:20:32.617Z,29.20
2023-01-18T01:23:31.429Z,32.70
2023-01-18T01:26:08.461Z,33.17
2023-01-18T01:28:42.639Z,32.67
2023-01-18T01:31:14.830Z,28.87
2023-01-18T01:33:42.661Z,28.67
2023-01-18T01:36:14.842Z,25.17
2023-01-18T01:38:42.079Z,33.47
2023-01-18T01:41:31.066Z,31.33
2023-01-18T01:44:28.136Z,29.50
2023-01-18T01:46:58.698Z,31.33
2023-01-18T01:49:40.140Z,32.00
2023-01-18T01:52:13.182Z,27.63
2023-01-18T01:54:47.702Z,30.93
2023-01-18T01:57:17.379Z,32.27
2023-01-18T01:59:56.346Z,32.97
2023-01-18T02:02:23.738Z,31.50
2023-01-18T02:04:53.779Z,30.13
2023-01-18T02:07:22.238Z,38.47
2023-01-18T02:09:50.627Z,30.07
2023-01-18T02:12:17.897Z,30.37
2023-01-18T02:14:45.011Z,30.67
2023-01-18T02:17:31.601Z,29.60
2023-01-18T02:20:19.603Z,28.93
2023-01-18T02:23:27.741Z,30.90
2023-01-18T02:26:43.809Z,25.53
2023-01-18T02:29:32.750Z,31.50
2023-01-18T02:32:14.820Z,29.17
2023-01-18T02:35:02.643Z,30.93
2023-01-18T02:38:05.213Z,31.07
2023-01-18T02:40:38.180Z,26.77
2023-01-18T02:43:25.799Z,28.37
2023-01-18T02:46:12.491Z,28.67
2023-01-18T02:48:44.130Z,26.83
2023-01-18T02:51:11.996Z,35.07
2023-01-18T02:53:41.513Z,27.00
2023-01-18T02:56:23.456Z,29.20
2023-01-18T02:58:56.644Z,28.43
2023-01-18T03:01:30.744Z,25.30
2023-01-18T03:04:04.170Z,28.60
2023-01-18T03:06:32.215Z,25.17
2023-01-18T03:08:59.958Z,22.80
2023-01-18T03:11:53.929Z,25.57
2023-01-18T03:14:39.350Z,24.70
2023-01-18T03:17:22.005Z,26.50
2023-01-18T03:20:07.237Z,25.13
2023-01-18T03:23:07.143Z,27.27
2023-01-18T03:25:39.866Z,26.33
2023-01-18T03:28:35.546Z,26.53
2023-01-18T03:31:24.860Z,27.80
2023-01-18T03:33:55.841Z,29.60
2023-01-18T03:36:27.087Z,29.53
2023-01-18T03:39:02.120Z,28.87
2023-01-18T03:41:32.504Z,28.00
2023-01-18T03:44:04.567Z,28.20
2023-01-18T03:46:32.362Z,30.23
2023-01-18T03:49:00.166Z,32.73
2023-01-18T03:51:47.387Z,27.57
2023-01-18T03:54:23.624Z,25.93
2023-01-18T03:57:17.687Z,30.93
2023-01-18T03:59:45.395Z,31.93
2023-01-18T04:02:12.313Z,29.50
2023-01-18T04:04:39.765Z,31.57
2023-01-18T04:07:06.688Z,28.83
2023-01-18T04:09:33.934Z,29.47
2023-01-18T04:12:00.971Z,31.60
2023-01-18T04:14:28.164Z,30.73
2023-01-18T04:16:55.182Z,33.33
2023-01-18T04:19:22.472Z,27.47
2023-01-18T04:21:49.375Z,30.73
2023-01-18T04:24:17.271Z,34.90
2023-01-18T04:26:44.226Z,32.63
2023-01-18T04:29:12.316Z,29.83
2023-01-18T04:31:39.364Z,25.90
2023-01-18T04:34:06.704Z,27.23
2023-01-18T04:36:33.767Z,26.00
2023-01-18T04:39:00.993Z,26.93
2023-01-18T04:41:28.718Z,25.93
2023-01-18T04:43:56.202Z,27.30
2023-01-18T04:46:23.226Z,24.77
2023-01-18T04:48:51.817Z,24.67
2023-01-18T04:51:19.265Z,22.20
2023-01-18T04:53:46.720Z,23.40
2023-01-18T04:56:13.804Z,24.43
2023-01-18T04:58:41.037Z,24.03
2023-01-18T05:01:09.708Z,23.27
2023-01-18T05:03:38.244Z,29.20
2023-01-18T05:06:06.826Z,21.63
2023-01-18T05:08:34.663Z,22.90
2023-01-18T05:11:05.770Z,20.93
2023-01-18T05:13:33.471Z,23.70
2023-01-18T05:16:00.963Z,23.67
2023-01-18T05:18:29.094Z,27.47
2023-01-18T05:20:56.214Z,23.50
2023-01-18T05:23:24.341Z,28.97
2023-01-18T05:25:57.927Z,28.03
2023-01-18T05:28:27.207Z,23.87
2023-01-18T05:30:54.983Z,31.23
2023-01-18T05:33:22.996Z,21.97
2023-01-18T05:35:51.257Z,22.20
2023-01-18T05:38:19.440Z,20.53
2023-01-18T05:40:50.210Z,19.20
2023-01-18T05:43:17.816Z,17.07
2023-01-18T05:45:45.120Z,20.47
2023-01-18T05:48:12.711Z,19.37
2023-01-18T05:50:40.406Z,20.83
2023-01-18T05:53:15.829Z,22.13
2023-01-18T05:55:43.151Z,20.83
2023-01-18T05:58:10.789Z,22.30
2023-01-18T06:00:37.809Z,23.47
2023-01-18T06:03:04.996Z,17.70
2023-01-18T06:05:32.013Z,16.80
2023-01-18T06:07:59.667Z,16.50
2023-01-18T06:10:26.578Z,20.73
2023-01-18T06:12:54.145Z,17.97
2023-01-18T06:15:21.126Z,15.23
2023-01-18T06:17:48.381Z,16.97
2023-01-18T06:20:15.624Z,15.73
2023-01-18T06:22:42.917Z,15.43
2023-01-18T06:25:10.307Z,15.70
2023-01-18T06:27:39.366Z,17.00
2023-01-18T06:30:07.378Z,13.93
2023-01-18T06:32:34.759Z,15.33
2023-01-18T06:35:01.731Z,13.47
2023-01-18T06:37:29.028Z,15.97
2023-01-18T06:39:55.941Z,16.57
2023-01-18T06:42:23.184Z,14.70
2023-01-18T06:44:50.311Z,16.20
2023-01-18T06:47:20.007Z,17.37
2023-01-18T06:49:50.166Z,15.13
2023-01-18T06:52:18.043Z,16.83
2023-01-18T06:54:44.976Z,15.33
2023-01-18T06:57:12.646Z,16.40
2023-01-18T06:59:40.240Z,18.70
2023-01-18T07:02:07.775Z,24.50
2023-01-18T07:04:41.362Z,20.90
2023-01-18T07:07:08.730Z,20.37
2023-01-18T07:09:35.760Z,18.77
2023-01-18T07:12:03.070Z,18.90
2023-01-18T07:14:30.000Z,19.00
2023-01-18T07:16:57.344Z,21.43
2023-01-18T07:19:24.266Z,23.23
2023-01-18T07:21:53.756Z,29.63
2023-01-18T07:24:20.827Z,27.83
2023-01-18T07:26:48.351Z,25.33
2023-01-18T07:29:15.571Z,27.10
2023-01-18T07:31:42.849Z,30.83
2023-01-18T07:34:10.553Z,30.23
2023-01-18T07:36:41.973Z,31.13
2023-01-18T07:39:09.824Z,27.40
2023-01-18T07:41:37.629Z,34.27
2023-01-18T07:44:05.250Z,49.10
2023-01-18T07:46:32.702Z,37.10
2023-01-18T07:49:02.326Z,53.60
2023-01-18T07:51:30.344Z,52.40
2023-01-18T07:53:58.034Z,48.27
2023-01-18T07:56:26.022Z,40.97
2023-01-18T07:58:53.358Z,54.87
2023-01-18T08:01:22.299Z,42.03
2023-01-18T08:03:50.231Z,46.00
2023-01-18T08:06:24.978Z,47.10
2023-01-18T08:08:52.464Z,58.97
2023-01-18T08:11:20.285Z,58.60
2023-01-18T08:13:49.295Z,56.93
2023-01-18T08:16:16.631Z,86.73
2023-01-18T08:18:45.565Z,108.77
2023-01-18T08:21:13.487Z,50.87
2023-01-18T08:23:40.848Z,56.33
2023-01-18T08:26:09.230Z,45.10
2023-01-18T08:28:36.590Z,87.23
2023-01-18T08:31:08.454Z,60.80
2023-01-18T08:33:45.402Z,60.10
2023-01-18T08:36:15.653Z,54.37
2023-01-18T08:38:43.181Z,53.13
2023-01-18T08:41:10.588Z,67.57
2023-01-18T08:43:37.645Z,39.03
2023-01-18T08:46:05.035Z,64.20
2023-01-18T08:48:32.334Z,71.53
2023-01-18T08:51:03.509Z,103.90
2023-01-18T08:53:31.638Z,67.63
2023-01-18T08:55:59.064Z,67.87
2023-01-18T08:58:26.113Z,51.83
2023-01-18T09:00:54.099Z,69.37
2023-01-18T09:03:22.142Z,62.70
2023-01-18T09:05:49.602Z,58.17
2023-01-18T09:08:17.583Z,61.17
2023-01-18T09:10:45.247Z,43.07
2023-01-18T09:13:12.568Z,43.40
2023-01-18T09:15:39.829Z,87.57
2023-01-18T09:18:08.383Z,88.37
2023-01-18T09:20:36.318Z,75.67
2023-01-18T09:23:05.264Z,55.57
2023-01-18T09:25:33.397Z,118.90
2023-01-18T09:28:02.094Z,57.97
2023-01-18T09:30:30.040Z,77.13
2023-01-18T09:32:58.488Z,59.53
2023-01-18T09:35:26.280Z,74.80
2023-01-18T09:37:55.048Z,96.47
2023-01-18T09:40:25.295Z,66.47
2023-01-18T09:42:53.404Z,57.53
2023-01-18T09:45:27.765Z,49.17
2023-01-18T09:48:05.161Z,121.03
2023-01-18T09:50:41.895Z,43.47
2023-01-18T09:53:16.348Z,43.87
2023-01-18T09:56:09.557Z,57.27
2023-01-18T09:59:02.882Z,58.17
2023-01-18T10:01:33.401Z,50.93
2023-01-18T10:04:30.261Z,45.13
2023-01-18T10:07:00.988Z,43.97
2023-01-18T10:09:31.777Z,45.20
2023-01-18T10:12:23.775Z,51.70
2023-01-18T10:15:07.607Z,49.40
2023-01-18T10:17:38.951Z,51.80
2023-01-18T10:20:14.752Z,52.07
2023-01-18T10:22:49.530Z,40.73
2023-01-18T10:25:41.922Z,69.67
2023-01-18T10:28:18.449Z,76.17
2023-01-18T10:31:22.514Z,78.13
2023-01-18T10:33:53.924Z,66.23
2023-01-18T10:36:34.729Z,224.50
2023-01-18T10:39:04.825Z,108.50
2023-01-18T10:41:36.605Z,90.10
2023-01-18T10:44:04.209Z,53.80
2023-01-18T10:46:32.117Z,109.57
2023-01-18T10:48:59.423Z,138.53
2023-01-18T10:51:26.325Z,109.00
2023-01-18T10:53:53.758Z,52.97
2023-01-18T10:56:24.691Z,63.37
2023-01-18T10:58:52.079Z,152.20
2023-01-18T11:01:22.760Z,196.27
2023-01-18T11:03:52.384Z,309.83
2023-01-18T11:06:20.751Z,559.60
2023-01-18T11:08:49.445Z,255.67
2023-01-18T11:11:50.799Z,120.80
2023-01-18T11:14:27.282Z,110.83
2023-01-18T11:17:02.516Z,119.20
2023-01-18T11:19:30.373Z,71.60
2023-01-18T11:21:57.443Z,123.15
2023-01-18T11:24:28.621Z,67.50
2023-01-18T11:27:04.358Z,56.80
2023-01-18T11:29:34.847Z,57.50
2023-01-18T11:32:09.667Z,59.20
2023-01-18T11:34:39.557Z,76.63
2023-01-18T11:37:34.456Z,71.77
2023-01-18T11:40:20.570Z,83.03
2023-01-18T11:42:49.196Z,97.17
2023-01-18T11:45:31.227Z,99.97
2023-01-18T11:48:11.670Z,109.07
2023-01-18T11:50:43.930Z,94.17
2023-01-18T11:53:21.658Z,67.27
2023-01-18T11:56:07.411Z,71.30
2023-01-18T11:58:35.795Z,65.80
2023-01-18T12:01:33.929Z,65.17
2023-01-18T12:04:09.631Z,69.93
2023-01-18T12:07:04.403Z,124.10
2023-01-18T12:09:52.706Z,142.50
2023-01-18T12:12:49.011Z,140.70
2023-01-18T12:15:29.869Z,111.35
2023-01-18T12:18:13.314Z,108.13
2023-01-18T12:20:43.665Z,102.55
2023-01-18T12:23:26.041Z,65.97
2023-01-18T12:26:21.088Z,61.90
2023-01-18T12:28:56.468Z,36.77
2023-01-18T12:31:26.320Z,32.93
2023-01-18T12:34:01.554Z,43.10
2023-01-18T12:36:55.516Z,69.28
2023-01-18T12:39:35.157Z,65.68
2023-01-18T12:42:12.580Z,45.38
2023-01-18T12:45:02.224Z,78.27
2023-01-18T12:47:39.490Z,82.30
2023-01-18T12:50:18.839Z,34.40
2023-01-18T12:52:49.516Z,33.23
2023-01-18T12:55:21.377Z,29.77
2023-01-18T12:57:55.239Z,38.77
2023-01-18T13:00:33.614Z,36.00
2023-01-18T13:03:04.005Z,53.67
2023-01-18T13:05:52.620Z,37.70
2023-01-18T13:08:40.083Z,34.33
2023-01-18T13:11:14.973Z,35.73
2023-01-18T13:13:42.758Z,37.93
2023-01-18T13:16:31.862Z,38.43
2023-01-18T13:19:03.749Z,29.60
2023-01-18T13:21:42.947Z,36.93
2023-01-18T13:24:47.507Z,30.53
2023-01-18T13:27:16.467Z,30.80
2023-01-18T13:29:44.106Z,34.93
2023-01-18T13:32:27.750Z,30.53
2023-01-18T13:35:22.630Z,30.10
2023-01-18T13:37:55.711Z,32.97
2023-01-18T13:40:42.374Z,29.50
2023-01-18T13:43:37.846Z,27.77
2023-01-18T13:46:07.897Z,30.67
2023-01-18T13:48:52.911Z,29.63
2023-01-18T13:51:47.465Z,29.53
2023-01-18T13:54:23.871Z,43.33
2023-01-18T13:57:05.634Z,27.23
2023-01-18T13:59:36.429Z,27.10
2023-01-18T14:02:28.079Z,26.10
2023-01-18T14:05:26.027Z,28.20
2023-01-18T14:07:56.031Z,28.60
2023-01-18T14:10:31.439Z,27.57
2023-01-18T14:13:01.252Z,28.40
2023-01-18T14:15:43.899Z,28.03
2023-01-18T14:18:28.601Z,26.77
2023-01-18T14:21:29.865Z,23.70
2023-01-18T14:24:21.048Z,22.77
2023-01-18T14:26:48.749Z,40.20
2023-01-18T14:29:20.576Z,26.37
2023-01-18T14:31:51.582Z,28.80
2023-01-18T14:34:35.388Z,22.10
2023-01-18T14:37:03.824Z,34.50
2023-01-18T14:39:33.282Z,61.40
2023-01-18T14:42:04.167Z,36.70
2023-01-18T14:44:57.029Z,41.10
2023-01-18T14:47:32.140Z,35.70
2023-01-18T14:50:00.869Z,38.30
2023-01-18T14:52:31.291Z,35.07
2023-01-18T14:54:58.882Z,58.87
2023-01-18T14:57:26.313Z,66.10
2023-01-18T14:59:57.074Z,57.93
2023-01-18T15:02:29.400Z,85.93
2023-01-18T15:05:17.242Z,72.33
2023-01-18T15:07:56.931Z,44.17
2023-01-18T15:10:24.465Z,28.80
2023-01-18T15:12:54.845Z,45.67
2023-01-18T15:15:26.184Z,15.10
2023-01-18T15:17:56.688Z,13.60
2023-01-18T15:20:23.919Z,10.90
2023-01-18T15:22:53.515Z,19.23
2023-01-18T15:25:26.568Z,11.80
2023-01-18T15:27:54.856Z,11.60
2023-01-18T15:30:23.761Z,12.27
2023-01-18T15:32:54.930Z,14.80
2023-01-18T15:35:23.869Z,15.43
2023-01-18T15:37:51.414Z,19.67
2023-01-18T15:40:18.549Z,13.17
2023-01-18T15:43:04.269Z,13.60
2023-01-18T15:45:40.519Z,11.97
2023-01-18T15:48:10.074Z,12.67
2023-01-18T15:50:56.840Z,9.90
2023-01-18T15:53:24.126Z,13.57
2023-01-18T15:55:53.566Z,12.53
2023-01-18T15:58:39.269Z,11.63
2023-01-18T16:01:22.289Z,116.57
2023-01-18T16:03:49.625Z,29.33
2023-01-18T16:06:19.960Z,65.73
2023-01-18T16:09:14.563Z,17.10
2023-01-18T16:11:41.694Z,15.60
2023-01-18T16:14:38.337Z,12.73
2023-01-18T16:17:14.274Z,38.40
2023-01-18T16:19:46.479Z,42.83
2023-01-18T16:22:43.735Z,15.63
2023-01-18T16:25:23.503Z,16.10
2023-01-18T16:27:55.172Z,12.43
2023-01-18T16:30:36.607Z,15.10
2023-01-18T16:33:09.940Z,14.10
2023-01-18T16:35:39.862Z,17.23
2023-01-18T16:38:17.402Z,37.70
2023-01-18T16:40:47.105Z,18.13
2023-01-18T16:43:24.263Z,11.53
2023-01-18T16:45:53.010Z,12.83
2023-01-18T16:48:25.933Z,14.37
2023-01-18T16:50:56.037Z,15.43
2023-01-18T16:53:23.454Z,12.17
2023-01-18T16:55:50.943Z,10.17
2023-01-18T16:58:18.981Z,34.90
2023-01-18T17:00:50.109Z,27.97
2023-01-18T17:03:17.257Z,14.03
2023-01-18T17:05:44.540Z,14.93
2023-01-18T17:08:15.942Z,18.60
2023-01-18T17:10:46.094Z,16.00
2023-01-18T17:13:13.486Z,14.67
2023-01-18T17:15:41.851Z,17.47
2023-01-18T17:18:15.686Z,20.17
2023-01-18T17:20:43.816Z,38.43
2023-01-18T17:23:11.040Z,24.90
2023-01-18T17:25:38.797Z,18.03
2023-01-18T17:28:05.911Z,15.20
2023-01-18T17:30:33.545Z,15.50
2023-01-18T17:33:01.557Z,14.70
2023-01-18T17:35:32.090Z,19.00
2023-01-18T17:38:05.370Z,16.53
2023-01-18T17:40:43.860Z,23.23
2023-01-18T17:43:15.161Z,20.37
2023-01-18T17:45:48.412Z,18.97
2023-01-18T17:48:18.279Z,21.90
2023-01-18T17:50:45.568Z,20.07
2023-01-18T17:53:12.610Z,22.83
2023-01-18T17:55:40.446Z,22.20
2023-01-18T17:58:07.541Z,17.43
2023-01-18T18:00:34.924Z,61.57
2023-01-18T18:03:02.531Z,28.63
2023-01-18T18:05:29.843Z,16.73
2023-01-18T18:07:57.026Z,17.47
2023-01-18T18:10:24.331Z,16.17
2023-01-18T18:12:51.420Z,51.80
2023-01-18T18:15:23.446Z,106.93
2023-01-18T18:17:50.815Z,20.73
2023-01-18T18:20:18.275Z,24.73
2023-01-18T18:22:45.419Z,28.67
2023-01-18T18:25:12.735Z,34.53
2023-01-18T18:27:47.613Z,85.33
2023-01-18T18:30:16.803Z,39.23
2023-01-18T18:32:43.956Z,20.40
2023-01-18T18:35:24.324Z,30.83
2023-01-18T18:37:53.626Z,45.80
2023-01-18T18:40:21.669Z,21.70
2023-01-18T18:43:04.504Z,18.07
2023-01-18T18:45:32.879Z,21.87
2023-01-18T18:48:00.536Z,22.00
2023-01-18T18:50:28.516Z,18.83
2023-01-18T18:52:55.726Z,26.50
2023-01-18T18:55:23.607Z,21.50
2023-01-18T18:57:51.021Z,19.20
2023-01-18T19:00:18.963Z,26.60
2023-01-18T19:02:46.000Z,18.07
2023-01-18T19:05:13.291Z,18.70
2023-01-18T19:07:42.673Z,109.73
2023-01-18T19:10:11.629Z,53.50
2023-01-18T19:12:38.786Z,27.27
2023-01-18T19:15:06.569Z,19.80
2023-01-18T19:17:33.580Z,16.83
2023-01-18T19:20:01.572Z,17.53
2023-01-18T19:22:29.029Z,18.83
2023-01-18T19:24:56.395Z,15.97
2023-01-18T19:27:24.667Z,18.63
2023-01-18T19:29:53.444Z,44.13
2023-01-18T19:32:20.771Z,173.27
2023-01-18T19:34:48.144Z,21.63
2023-01-18T19:37:15.455Z,33.33
2023-01-18T19:39:42.773Z,27.93
2023-01-18T19:42:09.821Z,16.90
2023-01-18T19:44:37.176Z,25.00
2023-01-18T19:47:04.209Z,18.07
2023-01-18T19:49:31.684Z,28.03
2023-01-18T19:51:58.934Z,18.83
2023-01-18T19:54:26.667Z,22.50
2023-01-18T19:56:53.628Z,27.27
2023-01-18T19:59:21.170Z,18.63
2023-01-18T20:01:48.371Z,17.57
2023-01-18T20:04:16.447Z,18.03
2023-01-18T20:06:45.970Z,20.17
2023-01-18T20:09:27.092Z,27.13
2023-01-18T20:11:59.813Z,19.20
2023-01-18T20:14:40.315Z,24.90
2023-01-18T20:17:14.641Z,18.93
2023-01-18T20:19:44.166Z,38.03
2023-01-18T20:22:11.453Z,28.70
2023-01-18T20:24:39.106Z,18.73
2023-01-18T20:27:15.429Z,21.87
2023-01-18T20:29:44.821Z,57.67
2023-01-18T20:32:16.742Z,37.13
2023-01-18T20:34:47.065Z,31.13
2023-01-18T20:37:15.469Z,35.07
2023-01-18T20:39:43.082Z,32.03
2023-01-18T20:42:10.318Z,22.70
2023-01-18T20:44:37.706Z,27.47
2023-01-18T20:47:05.172Z,45.77
2023-01-18T20:49:38.402Z,31.40
2023-01-18T20:52:07.160Z,26.00
2023-01-18T20:54:36.380Z,29.30
2023-01-18T20:57:05.471Z,45.03
2023-01-18T20:59:33.254Z,50.73
2023-01-18T21:02:00.624Z,50.40
2023-01-18T21:04:28.249Z,42.83
2023-01-18T21:06:57.356Z,35.20
2023-01-18T21:09:25.867Z,56.97
2023-01-18T21:11:53.109Z,57.70
2023-01-18T21:14:21.185Z,38.53
2023-01-18T21:16:48.547Z,46.73
2023-01-18T21:19:16.332Z,29.93
2023-01-18T21:21:44.621Z,37.17
2023-01-18T21:24:12.232Z,25.07
2023-01-18T21:26:39.409Z,25.27
2023-01-18T21:29:06.967Z,24.47
2023-01-18T21:31:34.093Z,19.40
2023-01-18T21:34:01.703Z,18.33
2023-01-18T21:36:28.660Z,14.63
2023-01-18T21:38:56.429Z,19.03
2023-01-18T21:41:41.843Z,19.47
2023-01-18T21:44:30.003Z,21.90
2023-01-18T21:46:57.137Z,22.50
2023-01-18T21:50:14.946Z,19.87
2023-01-18T21:52:49.104Z,24.33
2023-01-18T21:55:17.058Z,30.33
2023-01-18T21:57:44.293Z,29.37
2023-01-18T22:00:12.135Z,28.10
2023-01-18T22:02:39.170Z,25.57
2023-01-18T22:05:08.689Z,26.23
2023-01-18T22:07:35.754Z,27.27
2023-01-18T22:10:05.660Z,39.70
2023-01-18T22:12:35.291Z,30.80
2023-01-18T22:15:04.449Z,34.50
2023-01-18T22:17:31.754Z,28.00
2023-01-18T22:19:59.816Z,28.23
2023-01-18T22:22:26.743Z,31.60
2023-01-18T22:24:54.214Z,28.77
2023-01-18T22:27:21.151Z,31.23
2023-01-18T22:29:48.565Z,29.10
2023-01-18T22:32:16.324Z,28.03
2023-01-18T22:34:43.695Z,27.07
2023-01-18T22:37:10.698Z,34.93
2023-01-18T22:39:37.977Z,30.13
2023-01-18T22:42:05.118Z,51.30
2023-01-18T22:44:32.925Z,36.10
2023-01-18T22:47:00.196Z,33.27
2023-01-18T22:49:27.512Z,39.07
2023-01-18T22:51:54.406Z,32.77
2023-01-18T22:54:23.001Z,33.30
2023-01-18T22:56:50.000Z,29.13
2023-01-18T22:59:17.569Z,33.27
2023-01-18T23:01:44.732Z,31.20
2023-01-18T23:04:12.162Z,39.33
2023-01-18T23:06:48.169Z,37.10
2023-01-18T23:09:17.302Z,29.53
2023-01-18T23:11:45.253Z,45.63
2023-01-18T23:14:30.945Z,30.37
2023-01-18T23:17:16.698Z,36.80
2023-01-18T23:19:44.060Z,41.70
2023-01-18T23:22:11.322Z,33.23
2023-01-18T23:24:39.975Z,37.40
2023-01-18T23:27:08.402Z,50.13
2023-01-18T23:29:35.685Z,45.50
2023-01-18T23:32:02.742Z,48.13
2023-01-18T23:34:30.007Z,42.93
2023-01-18T23:36:56.928Z,33.73
2023-01-18T23:39:42.768Z,30.50
2023-01-18T23:42:27.866Z,37.00
2023-01-18T23:45:13.620Z,35.33
2023-01-18T23:47:59.117Z,41.10
2023-01-18T23:50:45.276Z,43.10
2023-01-18T23:53:31.590Z,60.53
2023-01-18T23:55:59.771Z,54.53
2023-01-18T23:58:26.908Z,41.80
